Flight Track Log - Related Links

Times and Time Zones

All times are in EDT time to prevent confusion due to time zone crossing. See the UAL5829 flight status page for this flight to view local times or setup timezone preferences in your user account.

Time Position Orientation Groundspeed Altitude Reporting Facility
EDT Latitude Longitude Course Direction KTS MPH feet Rate Location/Type
12:32PM 38.9667 -77.5167 125° Southeast 196 226 2,300  Level Potomac TRACON
12:33PM 39.0167 -77.5667 322° Northwest 281 323 4,000 2,105 Climbing Potomac TRACON
12:34PM 39.1000 -77.5000 32° Northeast 323 372 6,300 2,474 Climbing Potomac TRACON
12:35PM 38.7125 -77.3118 123° Southeast  Level Estimated
12:35PM 39.1500 -77.4167 52° Northeast 334 384 8,700  Level Potomac TRACON
12:36PM 38.7137 -77.2280 89° East  Level FlightAware Approximate
12:36PM 39.1667 -77.3000 80° East 350 403 10,200  Level Potomac TRACON
12:37PM 38.7150 -77.1441 89° East  Level FlightAware Approximate
12:37PM 39.1500 -77.1833 100° East 357 411 11,700  Level Potomac TRACON
12:38PM 38.6545 -77.1120 125° Southeast  Level Estimated
12:38PM 39.1167 -77.0667 110° East 343 395 13,800  Level Potomac TRACON
12:39PM 39.1000 -76.9667 102° East 334 384 14,100 105 Climbing Potomac TRACON
12:40PM 39.0333 -76.9167 150° Southeast 285 328 14,000 -50 Descending Potomac TRACON
12:41PM 38.9500 -76.8833 163° South 313 360 14,000  Level Potomac TRACON
12:43PM 38.8236 -76.8358 164° South 314 361 14,000  Level Washington Center
12:44PM 38.7489 -76.8056 162° South 296 341 14,000  Level Washington Center
12:45PM 38.6761 -76.7750 162° South 285 328 14,000  Level Washington Center
12:46PM 38.5992 -76.7444 163° South 285 328 14,000  Level Washington Center
12:47PM 38.5203 -76.7222 168° South 291 335 14,000  Level Washington Center
12:48PM 38.4369 -76.7103 174° South 297 342 14,000 -50 Level Washington Center
12:49PM 38.3578 -76.7011 175° South 291 335 13,900  Descending Washington Center
12:50PM 38.2828 -76.6867 171° South 291 335 14,000 50 Climbing Washington Center
12:51PM 38.2081 -76.6753 173° South 286 329 14,000 -300 Level Washington Center
12:52PM 38.1331 -76.6689 176° South 281 323 13,400 -900 Descending Washington Center
12:53PM 38.0475 -76.6675 179° South 292 336 12,200 -700 Descending Washington Center
12:54PM 37.9597 -76.6742 183° South 302 348 12,000 -100 Descending Washington Center
12:55PM 37.8700 -76.6756 181° South 318 366 12,000  Level Washington Center
12:56PM 37.7914 -76.6008 143° Southeast 324 373 12,000 50 Level Washington Center
12:57PM 37.7214 -76.5081 134° Southeast 341 392 12,100 -400 Climbing Washington Center
12:58PM 37.6511 -76.4075 131° Southeast 356 410 11,200 -1,050 Descending Washington Center
12:58PM 37.6222 -76.3706 135° Southeast 367 422 10,700 -1,000 Descending Washington Center
12:59PM 37.5911 -76.3256 131° Southeast 352 405 10,200 -1,180 Descending Washington Center
12:59PM 37.5683 -76.2967 135° Southeast 274 315 9,500 -1,300 Descending Washington Center
01:00PM 37.5394 -76.2519 129° Southeast 316 364 8,900 -1,182 Descending Washington Center
01:00PM 37.5125 -76.2175 135° Southeast 274 315 8,200 -1,300 Descending Washington Center
01:01PM 37.4856 -76.1781 131° Southeast 289 333 7,600 -1,574 Descending Washington Center
01:01PM 37.4544 -76.1386 135° Southeast 293 337 6,600 -1,600 Descending Washington Center
01:02PM 37.4358 -76.1072 127° Southeast 284 327 6,000 -1,377 Descending Washington Center
01:02PM 37.4047 -76.0625 131° Southeast 272 313 5,200 -1,400 Descending Washington Center
01:03PM 37.3819 -76.0492 155° Southeast 267 307 4,600 -1,100 Descending Washington Center
01:03PM 37.3422 -76.0333 162° South 242 278 4,100 -600 Descending Washington Center
01:04PM 37.3172 -76.0200 157° South 252 290 4,000  Descending Washington Center
01:04PM 37.2756 -76.0122 172° South 231 266 4,100  Climbing Washington Center
01:05PM 37.2547 -76.0119 179° South 239 275 4,000  Descending Washington Center
01:05PM 37.2150 -76.0194 189° South 221 254 4,100 66 Climbing Washington Center
01:06PM 37.1503 -76.0244 184° South 233 268 4,100 -393 Level Washington Center
01:07PM 37.0983 -76.0267 182° South 180 207 3,300 -545 Descending Washington Center
01:08PM 37.0503 -76.0525 203° Southwest 190 219 3,000 -298 Descending Washington Center
01:09PM 37.0208 -76.0783 215° Southwest 104 120 2,700 -365 Descending Washington Center
01:10PM 36.9978 -76.1042 222° Southwest 113 130 2,300 -444 Descending Washington Center

Login

Don't have an account? Register now (free) for customized features, flight alerts, and more!